Time;durP1;ratioP1;P1;durP2;ratioP2;P2;SDS_P1;SDS_P2;PMS_P1;PMS_P2;Temp;Humidity;BMP_temperature;BMP_pressure;BME280_temperature;BME280_humidity;BME280_pressure;Samples;Min_cycle;Max_cycle;Signal;HPM_P1;HPM_P2
2024/04/04 00:02:32;;;;;;;1.77;1.13;;;22.20;50.50;;;;;;10395323;28;20132;-48
2024/04/04 00:07:35;;;;;;;1.55;1.05;;;22.30;50.20;;;;;;10401356;28;20466;-50
2024/04/04 00:12:37;;;;;;;1.45;0.95;;;22.20;50.40;;;;;;10398860;28;20486;-52
2024/04/04 00:17:38;;;;;;;1.75;1.20;;;22.20;50.40;;;;;;10396825;28;20053;-48
2024/04/04 00:22:41;;;;;;;1.00;0.93;;;22.30;50.10;;;;;;10393697;28;20045;-49
2024/04/04 00:27:43;;;;;;;1.10;1.00;;;22.20;50.30;;;;;;10395986;28;20124;-53
2024/04/04 00:32:45;;;;;;;1.10;0.93;;;22.20;50.20;;;;;;10394125;28;20034;-48
2024/04/04 00:37:50;;;;;;;0.98;0.88;;;22.20;50.10;;;;;;10387438;28;20037;-49
2024/04/04 00:42:51;;;;;;;1.50;1.27;;;22.10;50.30;;;;;;10398970;28;20048;-48
2024/04/04 00:47:53;;;;;;;1.13;0.90;;;22.20;50.00;;;;;;10398056;28;20046;-51
2024/04/04 00:52:56;;;;;;;4.43;1.00;;;22.00;50.40;;;;;;10390680;28;20132;-48
2024/04/04 00:57:58;;;;;;;4.97;1.00;;;22.00;50.50;;;;;;10391954;28;20061;-48
2024/04/04 01:02:59;;;;;;;3.40;1.00;;;21.30;53.20;;;;;;10390673;28;20042;-48
2024/04/04 01:08:02;;;;;;;6.22;1.10;;;21.30;53.80;;;;;;10388369;28;20056;-50
2024/04/04 01:13:04;;;;;;;1.65;1.05;;;21.30;53.80;;;;;;10400029;28;20037;-48
2024/04/04 01:18:06;;;;;;;5.53;1.10;;;21.10;54.50;;;;;;10391200;28;20042;-50
2024/04/04 01:23:09;;;;;;;5.68;1.23;;;21.80;52.50;;;;;;10407347;28;20045;-54
2024/04/04 01:28:12;;;;;;;3.15;1.00;;;22.00;51.80;;;;;;10399622;28;20049;-49
2024/04/04 01:33:13;;;;;;;3.33;1.00;;;22.00;51.60;;;;;;10399242;28;20038;-48
2024/04/04 01:38:15;;;;;;;2.03;1.05;;;22.20;51.00;;;;;;10396519;28;20048;-48
2024/04/04 01:43:18;;;;;;;2.15;0.95;;;22.20;51.00;;;;;;10401303;28;20042;-55
2024/04/04 01:48:19;;;;;;;2.97;1.00;;;22.10;51.00;;;;;;10404829;28;20050;-50
2024/04/04 01:53:21;;;;;;;1.25;0.90;;;22.10;51.00;;;;;;10404508;28;20037;-57
2024/04/04 01:58:24;;;;;;;1.45;1.00;;;22.00;51.20;;;;;;10401682;28;20052;-51
2024/04/04 02:03:25;;;;;;;1.17;0.80;;;22.00;51.10;;;;;;10403730;28;20043;-56
2024/04/04 02:08:27;;;;;;;2.75;1.20;;;22.00;51.00;;;;;;10407155;28;20044;-51
2024/04/04 02:13:30;;;;;;;1.92;0.90;;;21.90;51.00;;;;;;10407223;28;20079;-51
2024/04/04 02:18:31;;;;;;;1.05;0.95;;;21.90;51.20;;;;;;10396014;28;20055;-49
2024/04/04 02:23:33;;;;;;;1.85;0.90;;;21.80;51.40;;;;;;10403440;28;20041;-53
2024/04/04 02:28:36;;;;;;;2.25;0.90;;;21.80;51.40;;;;;;10404345;28;20128;-51
2024/04/04 02:33:37;;;;;;;1.65;0.80;;;21.80;51.30;;;;;;10406455;28;20043;-51
2024/04/04 02:38:39;;;;;;;1.75;0.90;;;21.80;51.30;;;;;;10401883;28;20405;-51
2024/04/04 02:43:42;;;;;;;3.00;0.90;;;21.70;51.40;;;;;;10400407;28;20425;-52
2024/04/04 02:48:45;;;;;;;2.20;0.90;;;21.60;51.40;;;;;;10399414;28;20594;-49
2024/04/04 02:53:47;;;;;;;2.15;0.80;;;21.60;51.60;;;;;;10393856;28;20045;-47
2024/04/04 02:58:50;;;;;;;3.17;0.90;;;21.60;51.50;;;;;;10400408;28;20052;-49
2024/04/04 03:03:52;;;;;;;1.00;0.80;;;21.60;51.50;;;;;;10397329;28;20136;-51
2024/04/04 03:08:53;;;;;;;1.10;0.75;;;21.50;51.90;;;;;;10405856;28;20045;-50
2024/04/04 03:13:56;;;;;;;1.25;0.80;;;20.60;54.10;;;;;;10402202;28;20038;-50
2024/04/04 03:18:58;;;;;;;2.10;1.08;;;20.50;54.70;;;;;;10404614;28;20045;-53
2024/04/04 03:23:59;;;;;;;1.30;0.80;;;20.50;54.90;;;;;;10401492;28;20049;-50
2024/04/04 03:29:02;;;;;;;1.73;0.90;;;20.70;54.40;;;;;;10396172;28;20041;-52
2024/04/04 03:34:04;;;;;;;1.70;0.70;;;21.30;52.90;;;;;;10405046;28;20040;-49
2024/04/04 03:39:05;;;;;;;1.73;0.60;;;21.70;52.00;;;;;;10396558;28;20045;-51
2024/04/04 03:44:09;;;;;;;1.20;0.90;;;22.00;51.40;;;;;;10400394;28;20543;-54
2024/04/04 03:49:10;;;;;;;0.95;0.70;;;21.90;51.30;;;;;;10398204;28;20056;-49
2024/04/04 03:54:12;;;;;;;1.02;0.80;;;21.70;51.70;;;;;;10400245;28;20038;-50
2024/04/04 03:59:15;;;;;;;1.85;0.70;;;21.70;51.80;;;;;;10399777;28;20041;-53
2024/04/04 04:04:16;;;;;;;1.20;0.70;;;21.80;51.70;;;;;;10398672;28;20045;-51
2024/04/04 04:09:18;;;;;;;1.60;0.90;;;21.80;51.70;;;;;;10403176;28;20045;-52
2024/04/04 04:14:21;;;;;;;1.30;0.70;;;22.00;51.30;;;;;;10392336;28;20137;-53
2024/04/04 04:19:22;;;;;;;1.00;0.68;;;22.00;51.30;;;;;;10406531;28;20051;-53
2024/04/04 04:24:24;;;;;;;0.75;0.60;;;22.00;51.20;;;;;;10399093;28;20095;-49
2024/04/04 04:29:27;;;;;;;1.25;0.70;;;22.10;51.00;;;;;;10392097;28;20054;-48
2024/04/04 04:34:29;;;;;;;1.25;0.70;;;22.20;51.20;;;;;;10396971;28;20038;-52
2024/04/04 04:39:31;;;;;;;1.90;0.80;;;22.20;51.10;;;;;;10402172;28;20050;-52
2024/04/04 04:44:35;;;;;;;1.23;0.70;;;22.30;50.90;;;;;;10401209;28;20058;-52
2024/04/04 04:49:36;;;;;;;1.30;0.60;;;22.30;51.00;;;;;;10394931;28;20084;-50
2024/04/04 04:54:38;;;;;;;1.48;0.73;;;22.30;50.90;;;;;;10399112;28;20048;-55
2024/04/04 04:59:41;;;;;;;1.20;0.80;;;22.40;50.90;;;;;;10403040;28;20062;-53
2024/04/04 05:04:42;;;;;;;1.63;0.70;;;22.40;50.70;;;;;;10397916;28;20045;-56
2024/04/04 05:09:44;;;;;;;1.17;0.70;;;22.40;51.10;;;;;;10402597;28;20049;-53
2024/04/04 05:14:47;;;;;;;4.18;0.80;;;22.50;51.00;;;;;;10410196;28;20071;-50
2024/04/04 05:19:49;;;;;;;1.08;0.70;;;22.40;51.30;;;;;;10399141;28;20051;-52
2024/04/04 05:24:50;;;;;;;1.35;0.70;;;22.50;51.20;;;;;;10400673;28;20049;-50
2024/04/04 05:29:54;;;;;;;1.63;0.65;;;22.40;51.60;;;;;;10399613;28;20046;-51
2024/04/04 05:34:56;;;;;;;1.33;0.80;;;22.40;51.90;;;;;;10396162;28;20132;-54
2024/04/04 05:39:57;;;;;;;3.13;0.73;;;22.50;52.00;;;;;;10400648;28;20053;-49
2024/04/04 05:45:01;;;;;;;3.97;1.05;;;22.50;52.40;;;;;;10404909;28;20079;-49
2024/04/04 05:50:02;;;;;;;5.40;0.90;;;22.40;52.60;;;;;;10410873;28;20056;-53
2024/04/04 05:55:04;;;;;;;3.22;1.20;;;22.50;52.70;;;;;;10397078;28;20095;-47
2024/04/04 06:00:09;;;;;;;4.75;1.10;;;22.40;51.50;;;;;;10396211;28;20077;-54
2024/04/04 06:05:10;;;;;;;3.88;1.00;;;22.20;52.30;;;;;;10392908;28;20063;-50
2024/04/04 06:10:12;;;;;;;18.88;2.70;;;22.10;52.90;;;;;;10397512;28;20041;-54
2024/04/04 06:15:15;;;;;;;13.50;2.92;;;22.30;54.10;;;;;;10388447;28;20144;-58
2024/04/04 06:20:16;;;;;;;21.40;3.53;;;22.40;54.60;;;;;;10400371;28;20048;-51
2024/04/04 06:25:18;;;;;;;20.77;3.22;;;22.40;54.70;;;;;;10403540;28;20041;-53
2024/04/04 06:30:21;;;;;;;14.93;2.97;;;22.00;55.00;;;;;;10373849;28;20048;-52
2024/04/04 06:35:23;;;;;;;25.40;5.22;;;21.80;55.40;;;;;;10393805;28;20064;-52
2024/04/04 06:40:24;;;;;;;23.42;4.70;;;21.60;55.30;;;;;;10364339;28;20054;-56
2024/04/04 06:45:27;;;;;;;16.08;3.88;;;21.60;55.20;;;;;;10389251;28;20457;-53
2024/04/04 06:50:29;;;;;;;21.92;3.80;;;21.50;54.90;;;;;;10365989;28;20481;-53
2024/04/04 06:55:31;;;;;;;17.27;3.85;;;21.50;54.90;;;;;;10364366;28;20096;-51
2024/04/04 07:00:35;;;;;;;15.15;3.33;;;21.50;55.10;;;;;;10372627;28;20061;-50
2024/04/04 07:05:37;;;;;;;16.00;3.13;;;21.40;54.90;;;;;;10400934;28;20443;-52
2024/04/04 07:10:39;;;;;;;10.60;2.70;;;21.40;54.80;;;;;;10363936;28;20590;-52
2024/04/04 07:15:42;;;;;;;8.10;2.50;;;21.30;54.80;;;;;;10353440;28;20046;-55
2024/04/04 07:20:44;;;;;;;7.45;2.53;;;21.30;54.80;;;;;;10361866;28;20417;-54
2024/04/04 07:25:51;;;;;;;14.25;3.00;;;21.50;54.20;;;;;;10396279;28;20129;-56
2024/04/04 07:30:54;;;;;;;6.72;2.20;;;21.60;53.60;;;;;;10362513;28;20112;-51
2024/04/04 07:35:56;;;;;;;7.03;1.83;;;21.60;53.30;;;;;;10399862;28;20046;-53
2024/04/04 07:40:58;;;;;;;7.00;2.15;;;21.70;53.80;;;;;;10366228;28;20509;-55
2024/04/04 07:46:02;;;;;;;8.68;2.25;;;21.70;52.60;;;;;;10363497;28;20426;-52
2024/04/04 07:51:04;;;;;;;5.32;1.95;;;21.60;52.90;;;;;;10358860;28;20510;-52
2024/04/04 07:56:07;;;;;;;5.93;1.98;;;21.50;53.00;;;;;;10358898;28;20128;-54
2024/04/04 08:01:11;;;;;;;5.60;1.52;;;21.30;53.30;;;;;;10358989;28;20054;-51
2024/04/04 08:06:13;;;;;;;4.53;1.67;;;21.10;54.00;;;;;;10364668;28;20563;-52
2024/04/04 08:11:15;;;;;;;4.95;1.52;;;21.10;54.30;;;;;;10363496;28;20046;-55
2024/04/04 08:16:18;;;;;;;6.32;2.05;;;21.20;54.20;;;;;;10364638;28;20167;-50
2024/04/04 08:21:20;;;;;;;5.38;2.10;;;21.20;54.10;;;;;;10365958;28;20046;-52
2024/04/04 08:26:24;;;;;;;4.68;1.60;;;21.10;54.00;;;;;;10372339;28;20050;-56
2024/04/04 08:31:27;;;;;;;4.90;1.65;;;21.10;54.00;;;;;;10374706;28;20441;-51
2024/04/04 08:36:29;;;;;;;4.18;1.65;;;21.10;54.00;;;;;;10373972;28;20045;-50
2024/04/04 08:41:32;;;;;;;7.28;1.60;;;21.10;55.00;;;;;;10375201;28;20049;-53
2024/04/04 08:46:35;;;;;;;5.20;1.50;;;21.10;54.00;;;;;;10374868;28;20053;-55
2024/04/04 08:51:37;;;;;;;3.70;1.50;;;21.10;54.20;;;;;;10371255;28;20045;-54
2024/04/04 08:56:38;;;;;;;3.50;1.30;;;21.20;53.90;;;;;;10373757;28;20052;-57
2024/04/04 09:01:41;;;;;;;8.27;1.58;;;21.20;54.00;;;;;;10374036;28;20049;-52
2024/04/04 09:06:43;;;;;;;5.80;1.40;;;21.20;53.90;;;;;;10375480;28;20049;-54
2024/04/04 09:11:44;;;;;;;5.32;1.20;;;21.20;53.90;;;;;;10401058;28;20060;-55
2024/04/04 09:16:47;;;;;;;3.88;1.48;;;21.20;54.10;;;;;;10401278;28;20429;-59
2024/04/04 09:21:49;;;;;;;4.93;1.48;;;21.20;54.00;;;;;;10405352;28;20469;-58
2024/04/04 09:26:51;;;;;;;2.90;1.40;;;21.20;54.30;;;;;;10403701;28;20459;-58
2024/04/04 09:31:53;;;;;;;4.35;1.52;;;21.10;54.40;;;;;;10399880;28;20525;-58
2024/04/04 09:36:55;;;;;;;4.53;1.50;;;21.30;53.80;;;;;;10400839;28;20063;-59
2024/04/04 09:41:57;;;;;;;2.53;1.27;;;21.30;53.60;;;;;;10401013;28;20145;-59
2024/04/04 09:47:00;;;;;;;3.88;1.60;;;21.30;53.40;;;;;;10397064;28;20132;-57
2024/04/04 09:52:01;;;;;;;3.25;1.42;;;21.20;53.80;;;;;;10393964;28;20081;-60
2024/04/04 09:57:04;;;;;;;3.05;1.05;;;21.20;54.00;;;;;;10399805;28;20056;-54
2024/04/04 10:02:07;;;;;;;3.33;1.27;;;21.30;53.40;;;;;;10395776;28;20049;-52
2024/04/04 10:07:09;;;;;;;4.80;1.20;;;21.20;53.50;;;;;;10397446;28;20049;-56
2024/04/04 10:12:12;;;;;;;2.53;1.05;;;21.30;53.50;;;;;;10385854;28;20409;-51
2024/04/04 10:17:16;;;;;;;6.47;1.30;;;21.30;53.70;;;;;;10368353;28;20050;-52
2024/04/04 10:22:18;;;;;;;6.40;1.50;;;21.30;53.20;;;;;;10364486;28;20042;-53
2024/04/04 10:27:19;;;;;;;5.18;1.30;;;21.30;52.80;;;;;;10368258;28;20067;-53
2024/04/04 10:32:22;;;;;;;8.20;1.20;;;21.30;52.90;;;;;;10400934;28;20416;-53
2024/04/04 10:37:24;;;;;;;5.85;1.15;;;21.40;52.80;;;;;;10395677;28;20046;-58
2024/04/04 10:42:26;;;;;;;7.00;1.30;;;21.30;52.70;;;;;;10391470;28;20124;-54
2024/04/04 10:47:29;;;;;;;2.60;1.20;;;21.40;52.40;;;;;;10389769;28;20060;-51
2024/04/04 10:52:31;;;;;;;4.57;0.95;;;21.40;52.50;;;;;;10398798;28;20516;-55
2024/04/04 10:57:33;;;;;;;7.22;1.20;;;21.50;52.30;;;;;;10403727;28;20041;-53
2024/04/04 11:02:35;;;;;;;3.80;1.00;;;21.40;52.20;;;;;;10399303;28;20042;-54
2024/04/04 11:07:38;;;;;;;1.67;0.80;;;21.40;52.40;;;;;;10393461;28;20056;-51
2024/04/04 11:12:40;;;;;;;3.38;1.30;;;21.50;52.30;;;;;;10391395;28;20045;-54
2024/04/04 11:17:43;;;;;;;3.15;1.00;;;21.50;52.40;;;;;;10387984;28;20056;-52
2024/04/04 11:22:45;;;;;;;7.78;1.33;;;21.60;52.40;;;;;;10394482;28;20056;-50
2024/04/04 11:27:46;;;;;;;4.75;1.35;;;21.80;53.70;;;;;;10399662;28;20049;-50
2024/04/04 11:32:49;;;;;;;4.15;1.55;;;21.80;54.40;;;;;;10400738;28;20126;-53
2024/04/04 11:37:51;;;;;;;3.60;1.40;;;21.80;55.20;;;;;;10401274;28;20047;-55
2024/04/04 11:42:52;;;;;;;5.72;1.30;;;21.90;54.70;;;;;;10389130;28;20041;-53
2024/04/04 11:47:55;;;;;;;3.13;1.10;;;21.80;55.30;;;;;;10390922;28;20047;-52
2024/04/04 11:52:58;;;;;;;3.75;1.20;;;21.60;55.10;;;;;;10390032;28;20037;-53
2024/04/04 11:57:59;;;;;;;4.22;1.38;;;21.60;55.00;;;;;;10389214;28;20050;-52
2024/04/04 12:03:03;;;;;;;2.83;1.20;;;21.50;55.00;;;;;;10398806;28;20076;-52
2024/04/04 12:08:06;;;;;;;2.90;1.27;;;21.50;55.00;;;;;;10389913;28;20057;-52
2024/04/04 12:13:08;;;;;;;6.93;1.40;;;21.50;55.00;;;;;;10391645;28;20076;-49
2024/04/04 12:23:30;;;;;;;6.37;1.70;;;21.50;55.70;;;;;;10359620;28;20513;-51
2024/04/04 12:28:32;;;;;;;6.30;1.70;;;21.70;55.40;;;;;;10368644;28;20049;-53
2024/04/04 12:33:35;;;;;;;7.13;1.80;;;21.50;55.60;;;;;;10394310;28;20128;-53
2024/04/04 12:38:36;;;;;;;7.53;1.50;;;21.50;56.00;;;;;;10390981;28;20048;-52
2024/04/04 12:43:38;;;;;;;3.97;1.42;;;21.60;56.00;;;;;;10394464;28;20045;-54
2024/04/04 12:48:42;;;;;;;5.28;1.20;;;21.60;56.00;;;;;;10393604;28;20716;-50
2024/04/04 12:53:43;;;;;;;4.82;1.30;;;21.50;56.30;;;;;;10397171;28;20045;-53
2024/04/04 12:58:45;;;;;;;2.78;1.20;;;21.50;56.50;;;;;;10386062;28;20054;-52
2024/04/04 13:03:48;;;;;;;5.38;1.40;;;21.40;56.80;;;;;;10390214;28;20045;-55
2024/04/04 13:08:50;;;;;;;3.95;1.33;;;21.50;56.40;;;;;;10394854;28;20136;-54
2024/04/04 13:13:52;;;;;;;6.78;1.52;;;21.40;56.70;;;;;;10409337;28;20052;-49
2024/04/04 13:18:55;;;;;;;8.85;1.60;;;21.50;56.50;;;;;;10400875;28;20049;-52
2024/04/04 13:23:57;;;;;;;4.78;1.70;;;21.80;56.10;;;;;;10399414;28;20057;-54
2024/04/04 13:28:58;;;;;;;3.83;1.85;;;22.10;55.40;;;;;;10405805;28;20059;-53
2024/04/04 13:34:01;;;;;;;6.43;1.55;;;22.40;55.10;;;;;;10398882;28;20041;-51
2024/04/04 13:39:03;;;;;;;3.22;1.40;;;22.50;55.00;;;;;;10402816;28;20046;-52
2024/04/04 13:44:06;;;;;;;6.25;1.50;;;22.40;55.50;;;;;;10404780;28;20045;-54
2024/04/04 13:49:09;;;;;;;8.68;2.20;;;22.60;55.50;;;;;;10405110;28;20076;-51
2024/04/04 13:54:10;;;;;;;7.03;1.67;;;22.90;55.90;;;;;;10401253;28;20041;-53
2024/04/04 13:59:12;;;;;;;9.45;1.63;;;22.70;56.20;;;;;;10403473;28;20043;-54
2024/04/04 14:04:15;;;;;;;6.45;1.80;;;22.80;56.10;;;;;;10402430;28;20129;-55
2024/04/04 14:09:17;;;;;;;6.75;1.60;;;22.90;55.50;;;;;;10401791;28;20041;-56
2024/04/04 14:14:19;;;;;;;3.78;1.48;;;22.90;55.40;;;;;;10405028;28;20046;-56
2024/04/04 14:19:22;;;;;;;6.20;1.40;;;22.90;55.30;;;;;;10397049;28;20038;-56
2024/04/04 14:24:23;;;;;;;5.00;1.38;;;22.90;55.60;;;;;;10400267;28;20052;-55
2024/04/04 14:29:25;;;;;;;5.30;1.50;;;23.00;55.50;;;;;;10401626;28;20577;-57
2024/04/04 14:34:28;;;;;;;5.13;1.70;;;23.10;55.40;;;;;;10401629;28;20405;-53
2024/04/04 14:39:30;;;;;;;10.23;2.00;;;23.10;55.50;;;;;;10397533;28;20412;-55
2024/04/04 14:44:34;;;;;;;8.80;1.98;;;23.10;56.10;;;;;;10398502;28;20057;-55
2024/04/04 14:49:38;;;;;;;13.40;1.98;;;23.10;55.70;;;;;;10400737;28;20038;-55
2024/04/04 14:54:39;;;;;;;7.05;1.70;;;23.10;56.10;;;;;;10403738;28;20466;-56
2024/04/04 14:59:41;;;;;;;9.15;2.20;;;23.10;56.70;;;;;;10395696;28;20054;-52
2024/04/04 15:04:44;;;;;;;7.28;2.00;;;23.10;56.90;;;;;;10396109;28;20053;-55
2024/04/04 15:09:45;;;;;;;9.27;1.80;;;23.10;57.30;;;;;;10401583;28;20049;-53
2024/04/04 15:14:47;;;;;;;7.03;1.70;;;23.10;57.20;;;;;;10400177;28;20048;-55
2024/04/04 15:19:50;;;;;;;10.52;2.70;;;23.20;57.20;;;;;;10390507;28;20046;-51
2024/04/04 15:24:52;;;;;;;16.70;2.20;;;23.20;56.90;;;;;;10400501;28;20409;-55
2024/04/04 15:29:53;;;;;;;6.57;1.65;;;23.30;56.70;;;;;;10403677;28;20436;-54
2024/04/04 15:34:56;;;;;;;7.82;2.20;;;23.20;56.80;;;;;;10400308;28;20489;-56
2024/04/04 15:39:58;;;;;;;9.85;2.15;;;23.30;56.50;;;;;;10397416;28;20046;-56
2024/04/04 15:44:59;;;;;;;10.88;2.20;;;23.30;56.30;;;;;;10390437;28;20042;-58
2024/04/04 15:50:03;;;;;;;6.93;1.80;;;23.40;56.10;;;;;;10389178;28;20052;-52
2024/04/04 15:55:05;;;;;;;10.82;2.13;;;23.50;56.10;;;;;;10392915;28;20572;-51
2024/04/04 16:00:10;;;;;;;8.43;1.98;;;23.40;56.40;;;;;;10392915;28;20045;-55
2024/04/04 16:05:14;;;;;;;8.88;1.70;;;23.40;57.00;;;;;;10401171;28;20046;-55
2024/04/04 16:10:16;;;;;;;5.75;1.60;;;23.40;56.90;;;;;;10396677;28;20041;-50
2024/04/04 16:15:18;;;;;;;5.60;1.48;;;23.60;56.00;;;;;;10389375;28;20490;-53
2024/04/04 16:20:21;;;;;;;9.40;1.70;;;23.60;55.30;;;;;;10388729;28;20053;-51
2024/04/04 16:25:22;;;;;;;12.07;2.10;;;23.50;55.20;;;;;;10397966;28;20061;-54
2024/04/04 16:30:24;;;;;;;8.75;1.70;;;23.60;54.90;;;;;;10362821;28;20041;-51
2024/04/04 16:35:27;;;;;;;7.53;1.58;;;23.60;54.60;;;;;;10356548;28;20644;-54
2024/04/04 16:40:33;;;;;;;6.43;1.40;;;23.60;54.80;;;;;;10387061;28;20104;-53
2024/04/04 16:45:35;;;;;;;10.70;2.35;;;23.50;55.00;;;;;;10399807;28;20529;-57
2024/04/04 16:50:38;;;;;;;7.80;1.95;;;23.60;55.00;;;;;;10400735;28;20148;-53
2024/04/04 16:55:39;;;;;;;4.03;1.40;;;23.70;54.60;;;;;;10397322;28;20041;-57
2024/04/04 17:00:45;;;;;;;6.85;1.73;;;23.70;53.60;;;;;;10394235;28;20050;-55
2024/04/04 17:05:48;;;;;;;4.75;1.40;;;23.60;54.00;;;;;;10398767;28;20049;-57
2024/04/04 17:10:50;;;;;;;5.57;1.98;;;23.80;54.40;;;;;;10392135;28;20056;-56
2024/04/04 17:15:52;;;;;;;9.27;1.80;;;23.60;55.00;;;;;;10396327;28;20072;-51
2024/04/04 17:20:55;;;;;;;6.15;1.85;;;23.70;54.90;;;;;;10401050;28;20145;-56
2024/04/04 17:26:01;;;;;;;9.13;1.92;;;23.70;55.20;;;;;;10393994;28;20053;-50
2024/04/04 17:31:03;;;;;;;11.50;2.08;;;23.70;55.30;;;;;;10401951;28;20038;-52
2024/04/04 17:36:07;;;;;;;10.90;1.60;;;23.60;56.00;;;;;;10398536;28;20053;-52
2024/04/04 17:41:09;;;;;;;8.90;1.80;;;23.60;56.20;;;;;;10403067;28;20050;-54
2024/04/04 17:46:11;;;;;;;10.50;1.83;;;23.70;56.20;;;;;;10398970;28;20037;-56
2024/04/04 17:51:14;;;;;;;6.82;1.77;;;23.80;55.70;;;;;;10406669;28;20041;-52
2024/04/04 17:56:19;;;;;;;3.92;1.50;;;23.80;55.40;;;;;;10407186;28;20055;-53
2024/04/04 18:01:21;;;;;;;8.05;1.42;;;23.60;56.50;;;;;;10401765;28;20099;-52
2024/04/04 18:06:24;;;;;;;7.93;1.65;;;23.50;57.30;;;;;;10405537;28;20045;-53
2024/04/04 18:11:25;;;;;;;3.90;1.13;;;23.60;57.30;;;;;;10396091;28;20041;-55
2024/04/04 18:16:28;;;;;;;5.75;1.40;;;23.80;56.10;;;;;;10399981;28;20049;-54
2024/04/04 18:21:31;;;;;;;8.15;1.55;;;23.90;55.50;;;;;;10391569;28;20038;-57
2024/04/04 18:26:38;;;;;;;4.78;1.30;;;23.70;56.00;;;;;;10395356;28;20421;-58
2024/04/04 18:31:39;;;;;;;6.88;1.30;;;23.80;55.70;;;;;;10382333;28;20080;-54
2024/04/04 18:36:44;;;;;;;5.00;1.00;;;23.80;56.10;;;;;;10412913;28;20478;-53
2024/04/04 18:41:47;;;;;;;3.38;1.15;;;23.70;55.30;;;;;;10401647;28;20049;-56
2024/04/04 18:46:49;;;;;;;7.30;1.20;;;23.60;55.60;;;;;;10396066;28;20454;-57
2024/04/04 18:51:52;;;;;;;4.00;0.98;;;23.50;55.60;;;;;;10402366;28;20144;-55
2024/04/04 18:56:54;;;;;;;8.07;1.25;;;23.40;55.50;;;;;;10410840;28;20132;-55
2024/04/04 19:01:56;;;;;;;7.10;1.20;;;23.40;55.80;;;;;;10411173;28;20059;-56
2024/04/04 19:07:00;;;;;;;4.90;1.00;;;23.30;55.40;;;;;;10407073;28;20041;-52
2024/04/04 19:12:03;;;;;;;6.47;1.10;;;23.20;55.50;;;;;;10396769;28;20060;-57
2024/04/04 19:17:05;;;;;;;6.47;1.20;;;22.90;56.10;;;;;;10396976;28;20543;-56
2024/04/04 19:22:08;;;;;;;8.43;1.40;;;22.80;56.30;;;;;;10390217;28;20139;-56
2024/04/04 19:27:10;;;;;;;6.00;1.25;;;22.70;56.40;;;;;;10387331;28;20046;-56
2024/04/04 19:32:13;;;;;;;5.45;1.10;;;22.70;56.40;;;;;;10391425;28;20140;-52
2024/04/04 19:37:16;;;;;;;3.72;1.05;;;22.50;56.40;;;;;;10389783;28;20148;-53
2024/04/04 19:42:17;;;;;;;6.80;0.95;;;22.40;56.60;;;;;;10394755;28;20045;-53
2024/04/04 19:47:19;;;;;;;3.08;0.80;;;22.30;56.80;;;;;;10395606;28;20057;-56
2024/04/04 19:52:22;;;;;;;4.22;0.80;;;22.20;56.80;;;;;;10396894;28;20108;-50
2024/04/04 19:57:24;;;;;;;4.22;1.00;;;22.10;56.90;;;;;;10392604;28;20043;-56
2024/04/04 20:02:26;;;;;;;3.30;0.90;;;22.10;57.10;;;;;;10386213;28;20528;-53
2024/04/04 20:07:29;;;;;;;2.28;1.00;;;22.00;57.00;;;;;;10393228;28;20071;-52
2024/04/04 20:12:30;;;;;;;1.85;0.75;;;22.00;57.00;;;;;;10349001;28;20121;-58
2024/04/04 20:17:32;;;;;;;4.95;0.80;;;22.20;56.50;;;;;;10390374;28;20077;-60
2024/04/04 20:22:39;;;;;;;2.03;0.80;;;22.20;56.20;;;;;;10347200;28;20054;-59
2024/04/04 20:27:40;;;;;;;2.72;0.80;;;22.20;56.00;;;;;;10363013;28;20054;-53
2024/04/04 20:32:42;;;;;;;2.10;0.80;;;22.10;56.00;;;;;;10392038;28;20045;-59
2024/04/04 20:37:46;;;;;;;1.10;0.50;;;22.40;55.30;;;;;;10358528;28;20724;-59
2024/04/04 20:42:51;;;;;;;2.90;0.90;;;22.40;55.10;;;;;;10393901;28;20059;-58
2024/04/04 20:47:52;;;;;;;2.40;0.82;;;22.30;55.60;;;;;;10352362;28;20486;-57
2024/04/04 20:52:55;;;;;;;1.27;0.70;;;22.40;55.20;;;;;;10353444;28;20046;-59
2024/04/04 20:57:57;;;;;;;2.90;0.90;;;22.20;55.10;;;;;;10352175;28;20060;-58
2024/04/04 21:02:58;;;;;;;4.25;0.90;;;22.30;55.00;;;;;;10356121;28;20065;-59
2024/04/04 21:08:01;;;;;;;2.35;0.82;;;22.30;54.70;;;;;;10356849;28;20072;-59
2024/04/04 21:13:03;;;;;;;2.45;0.77;;;22.40;54.70;;;;;;10357272;28;20072;-59
2024/04/04 21:18:05;;;;;;;2.08;0.80;;;22.40;54.90;;;;;;10356686;28;20050;-60
2024/04/04 21:23:08;;;;;;;1.70;0.80;;;22.30;54.80;;;;;;10350790;28;20051;-58
2024/04/04 21:28:09;;;;;;;4.13;0.90;;;22.40;55.00;;;;;;10347558;28;20042;-58
2024/04/04 21:33:11;;;;;;;8.32;1.20;;;22.30;55.20;;;;;;10361421;28;20056;-58
2024/04/04 21:38:14;;;;;;;2.50;0.80;;;22.20;56.00;;;;;;10360010;28;20042;-56
2024/04/04 21:43:15;;;;;;;2.60;0.95;;;22.00;56.20;;;;;;10358559;28;20140;-53
2024/04/04 21:48:17;;;;;;;3.95;1.00;;;22.00;56.00;;;;;;10366770;28;20134;-54
2024/04/04 21:53:20;;;;;;;3.72;0.85;;;22.00;55.80;;;;;;10366934;28;20049;-57
2024/04/04 21:58:22;;;;;;;3.22;0.98;;;22.30;55.00;;;;;;10362093;28;20044;-52
2024/04/04 22:03:23;;;;;;;2.50;1.00;;;22.20;55.00;;;;;;10362895;28;20056;-57
2024/04/04 22:08:27;;;;;;;2.08;0.68;;;22.20;54.90;;;;;;10393425;28;20052;-55
2024/04/04 22:13:29;;;;;;;2.72;0.80;;;22.20;55.00;;;;;;10389205;28;20049;-54
2024/04/04 22:18:30;;;;;;;2.05;0.73;;;22.30;54.80;;;;;;10351772;28;20101;-55
2024/04/04 22:23:34;;;;;;;6.28;0.85;;;22.20;55.00;;;;;;10350679;28;20046;-53
2024/04/04 22:28:35;;;;;;;3.50;0.70;;;22.30;54.60;;;;;;10372047;28;20580;-50
2024/04/04 22:33:38;;;;;;;3.72;0.98;;;22.40;54.40;;;;;;10394002;28;20245;-50
2024/04/04 22:38:41;;;;;;;1.63;0.80;;;22.20;54.70;;;;;;10354075;28;20152;-55
2024/04/04 22:43:43;;;;;;;2.53;0.75;;;22.20;54.70;;;;;;10365052;28;20806;-54
2024/04/04 22:48:44;;;;;;;2.20;0.70;;;22.20;54.90;;;;;;10386664;28;20704;-56
2024/04/04 22:53:48;;;;;;;3.22;0.88;;;22.10;55.10;;;;;;10362278;28;20060;-54
2024/04/04 22:58:49;;;;;;;3.25;0.75;;;22.00;55.20;;;;;;10388451;28;20050;-54
2024/04/04 23:03:51;;;;;;;1.67;1.00;;;21.90;55.30;;;;;;10368787;28;20512;-59
2024/04/04 23:08:54;;;;;;;1.30;0.82;;;21.90;55.40;;;;;;10390010;28;20478;-51
2024/04/04 23:13:56;;;;;;;2.17;0.93;;;21.90;55.50;;;;;;10360957;28;20577;-55
2024/04/04 23:18:57;;;;;;;3.35;0.85;;;21.90;55.20;;;;;;10393269;28;20512;-54
2024/04/04 23:24:00;;;;;;;2.90;0.88;;;21.90;55.30;;;;;;10392736;28;20124;-58
2024/04/04 23:29:02;;;;;;;2.38;0.80;;;21.70;55.60;;;;;;10380653;28;20042;-52
2024/04/04 23:34:04;;;;;;;1.10;0.60;;;21.60;55.90;;;;;;10369816;28;20053;-54
2024/04/04 23:39:07;;;;;;;2.80;0.60;;;21.70;55.70;;;;;;10371847;28;20052;-55
2024/04/04 23:44:09;;;;;;;2.88;0.60;;;21.60;55.80;;;;;;10367477;28;20076;-55
2024/04/04 23:49:11;;;;;;;2.35;0.90;;;21.60;56.00;;;;;;10385411;28;20049;-54
2024/04/04 23:54:14;;;;;;;1.90;0.88;;;21.70;55.50;;;;;;10366070;28;20044;-56
2024/04/04 23:59:15;;;;;;;1.48;0.70;;;21.50;56.00;;;;;;10385754;28;20041;-56
